Terminal Aerodrome Forecast
Issued by NWS

Home | Current Version | Previous Version | Graphics & Text | Print | Product List | Glossary On
Versions: 1 2 3 4 5 6 7 8 9 10 11 12 13 14 15 16 17 18 19 20 21 22 23 24 25 26 27 28 29 30 31 32 33 34 35 36 37 38 39 40 41 42 43 44 45 46 47 48 49 50
044
FTUS43 KLOT 041151
TAFGYY
TAF
KGYY 041151Z 0412/0512 14004KT P6SM SCT028 OVC080
     FM041400 14005KT 6SM -SN OVC060
     FM041500 15006KT 3SM -SN BKN025 OVC050
     FM041600 16007KT 1SM -SN SCT007 OVC015
      TEMPO 0419/0423 3/4SM -SN BR OVC004
     FM042300 18008KT 3SM -SN BR OVC005
     FM050400 24008KT P6SM BKN015=

USA.gov is the U.S. government's official web portal to all federal, state and local government web resources and services.